Time;durP1;ratioP1;P1;durP2;ratioP2;P2;SDS_P1;SDS_P2;PMS_P1;PMS_P2;Temp;Humidity;BMP_temperature;BMP_pressure;BME280_temperature;BME280_humidity;BME280_pressure;Samples;Min_cycle;Max_cycle;Signal;HPM_P1;HPM_P2
2023/11/23 00:00:15;;;;;;;5.13;4.57;;;0.50;99.90;;;;;;5105311;28;20651;-74
2023/11/23 00:02:42;;;;;;;8.57;5.15;;;0.50;99.90;;;;;;5105954;28;20204;-74
2023/11/23 00:05:10;;;;;;;11.30;6.47;;;0.50;99.90;;;;;;5111420;28;20204;-74
2023/11/23 00:07:39;;;;;;;10.10;6.50;;;0.60;99.90;;;;;;5102567;28;20191;-74
2023/11/23 00:10:06;;;;;;;6.50;5.78;;;0.70;99.90;;;;;;5105258;28;20312;-74
2023/11/23 00:12:33;;;;;;;9.35;5.32;;;0.70;99.90;;;;;;5105372;28;20202;-74
2023/11/23 00:15:00;;;;;;;7.28;5.85;;;0.70;99.90;;;;;;5107388;28;20207;-74
2023/11/23 00:17:29;;;;;;;5.28;4.43;;;0.60;99.90;;;;;;5106704;28;20259;-74
2023/11/23 00:19:56;;;;;;;6.68;4.45;;;0.50;99.90;;;;;;5110975;27;20198;-74
2023/11/23 00:22:23;;;;;;;9.05;6.03;;;0.50;99.90;;;;;;5105343;28;20253;-74
2023/11/23 00:24:53;;;;;;;10.38;7.07;;;0.50;99.90;;;;;;5110937;28;20230;-74
2023/11/23 00:27:20;;;;;;;8.90;6.22;;;0.60;99.90;;;;;;5105463;28;20205;-74
2023/11/23 00:29:47;;;;;;;6.30;5.53;;;0.50;99.90;;;;;;5109483;28;20580;-74
2023/11/23 00:32:13;;;;;;;14.75;5.65;;;0.60;99.90;;;;;;5105793;28;20194;-74
2023/11/23 00:34:40;;;;;;;6.55;5.57;;;0.70;99.90;;;;;;5106871;27;20285;-74
2023/11/23 00:37:08;;;;;;;11.52;6.70;;;0.70;99.90;;;;;;5111850;27;20199;-74
2023/11/23 00:39:35;;;;;;;9.32;6.75;;;0.70;99.90;;;;;;5107857;27;20213;-74
2023/11/23 00:42:03;;;;;;;7.65;5.40;;;0.70;99.90;;;;;;5109230;27;20224;-74
2023/11/23 00:44:31;;;;;;;14.30;7.18;;;0.70;99.90;;;;;;5108405;27;20206;-74
2023/11/23 00:46:57;;;;;;;11.20;6.70;;;0.60;99.90;;;;;;5111992;27;20666;-74
2023/11/23 00:49:24;;;;;;;6.85;6.20;;;0.50;99.90;;;;;;5108477;27;20198;-74
2023/11/23 00:51:51;;;;;;;7.80;6.63;;;0.60;99.90;;;;;;5106157;28;20237;-74
2023/11/23 00:54:18;;;;;;;8.05;5.25;;;0.70;99.90;;;;;;5109697;27;20198;-73
2023/11/23 00:56:45;;;;;;;9.77;6.95;;;0.60;99.90;;;;;;5110192;27;20275;-74
2023/11/23 00:59:13;;;;;;;8.75;5.32;;;0.60;99.90;;;;;;5108139;27;20625;-74
2023/11/23 01:01:40;;;;;;;8.02;5.35;;;0.60;99.90;;;;;;5111111;27;20235;-74
2023/11/23 01:04:07;;;;;;;8.73;6.22;;;0.70;99.90;;;;;;5108968;27;20205;-74
2023/11/23 01:06:34;;;;;;;6.15;5.53;;;0.70;99.90;;;;;;5105203;27;20201;-74
2023/11/23 01:09:01;;;;;;;12.50;6.43;;;0.70;99.90;;;;;;5112409;27;20197;-74
2023/11/23 01:11:28;;;;;;;10.25;6.72;;;0.80;99.90;;;;;;5115102;27;20289;-74
2023/11/23 01:13:55;;;;;;;8.07;6.40;;;0.80;99.90;;;;;;5108869;27;20233;-74
2023/11/23 01:16:23;;;;;;;8.73;6.53;;;0.90;99.90;;;;;;5111666;27;20209;-74
2023/11/23 01:18:50;;;;;;;8.05;5.43;;;0.90;99.90;;;;;;5108773;27;20205;-74
2023/11/23 01:21:16;;;;;;;6.68;5.00;;;0.90;99.90;;;;;;5107710;28;20230;-73
2023/11/23 01:23:43;;;;;;;6.50;5.75;;;0.90;99.90;;;;;;5110623;27;20202;-74
2023/11/23 01:26:11;;;;;;;9.13;6.35;;;1.00;99.90;;;;;;5112366;27;20221;-74
2023/11/23 01:28:37;;;;;;;10.38;7.32;;;1.00;99.90;;;;;;5106446;27;20639;-74
2023/11/23 01:31:04;;;;;;;11.25;7.65;;;0.90;99.90;;;;;;5110660;27;20659;-74
2023/11/23 01:33:33;;;;;;;6.32;4.57;;;0.90;99.90;;;;;;5108390;27;20588;-74
2023/11/23 01:36:00;;;;;;;9.75;6.40;;;1.00;99.90;;;;;;5108847;27;21136;-74
2023/11/23 01:38:26;;;;;;;10.10;6.20;;;1.00;99.90;;;;;;5107569;28;20202;-74
2023/11/23 01:40:54;;;;;;;10.30;7.88;;;1.00;99.90;;;;;;5108049;28;20349;-74
2023/11/23 01:43:22;;;;;;;17.17;6.95;;;1.00;99.90;;;;;;5108274;27;20284;-74
2023/11/23 01:45:49;;;;;;;11.35;6.78;;;1.00;99.90;;;;;;5110967;27;20201;-74
2023/11/23 01:48:16;;;;;;;5.60;4.65;;;1.10;99.90;;;;;;5108031;27;20655;-74
2023/11/23 01:50:46;;;;;;;9.57;6.40;;;1.10;99.90;;;;;;5106357;27;20542;-74
2023/11/23 01:53:14;;;;;;;10.38;5.97;;;1.00;99.90;;;;;;5109789;27;20551;-74
2023/11/23 01:55:41;;;;;;;6.75;5.32;;;1.00;99.90;;;;;;5110310;27;20200;-74
2023/11/23 01:58:11;;;;;;;10.95;6.10;;;1.00;99.90;;;;;;5107342;27;20569;-74
2023/11/23 02:00:38;;;;;;;6.20;5.30;;;1.00;99.90;;;;;;5106674;27;20289;-74
2023/11/23 02:03:05;;;;;;;8.02;4.80;;;1.00;99.90;;;;;;5109166;27;20307;-74
2023/11/23 02:05:32;;;;;;;8.00;5.68;;;1.10;99.90;;;;;;5107743;27;20312;-73
2023/11/23 02:08:00;;;;;;;7.72;6.82;;;1.10;99.90;;;;;;5104979;27;20214;-73
2023/11/23 02:10:28;;;;;;;9.30;5.40;;;1.20;99.90;;;;;;5107542;27;20232;-74
2023/11/23 02:12:55;;;;;;;13.32;5.20;;;1.20;99.90;;;;;;5106687;27;20228;-74
2023/11/23 02:15:23;;;;;;;8.07;5.80;;;1.20;99.90;;;;;;5107826;27;20205;-74
2023/11/23 02:18:01;;;;;;;8.98;5.78;;;1.10;99.90;;;;;;5112112;27;20284;-74
2023/11/23 02:20:29;;;;;;;6.03;5.53;;;1.10;99.90;;;;;;5108624;27;20267;-74
2023/11/23 02:22:59;;;;;;;7.80;6.65;;;1.00;99.90;;;;;;5112735;27;20703;-74
2023/11/23 02:25:29;;;;;;;8.02;6.10;;;1.10;99.90;;;;;;5107928;27;20200;-74
2023/11/23 02:27:57;;;;;;;8.00;5.80;;;1.20;99.90;;;;;;5106820;28;20189;-73
2023/11/23 02:30:25;;;;;;;6.47;4.60;;;1.10;99.90;;;;;;5107402;28;20667;-74
2023/11/23 02:32:54;;;;;;;10.20;6.65;;;1.00;99.90;;;;;;5101623;27;20194;-74
2023/11/23 02:35:23;;;;;;;7.90;5.43;;;1.10;99.90;;;;;;5107191;27;20787;-74
2023/11/23 02:37:52;;;;;;;8.05;4.88;;;1.10;99.90;;;;;;5106898;28;20224;-74
2023/11/23 02:40:20;;;;;;;6.97;6.00;;;1.10;99.90;;;;;;5105826;28;20663;-74
2023/11/23 02:42:49;;;;;;;9.05;6.55;;;1.00;99.90;;;;;;5107009;28;20298;-74
2023/11/23 02:45:17;;;;;;;13.30;7.57;;;1.00;99.90;;;;;;5107803;28;20286;-74
2023/11/23 02:47:45;;;;;;;8.68;5.72;;;0.90;99.90;;;;;;5113772;27;20225;-74
2023/11/23 02:50:13;;;;;;;9.60;6.25;;;1.00;99.90;;;;;;5102268;28;20302;-74
2023/11/23 02:52:41;;;;;;;7.90;4.82;;;1.00;99.90;;;;;;5110204;27;20531;-74
2023/11/23 02:55:10;;;;;;;8.52;4.65;;;0.90;99.90;;;;;;5106163;28;20302;-74
2023/11/23 02:57:37;;;;;;;7.28;5.03;;;0.80;99.90;;;;;;5103628;28;20201;-74
2023/11/23 03:00:07;;;;;;;6.07;4.57;;;0.70;99.90;;;;;;5106315;28;20198;-74
2023/11/23 03:02:34;;;;;;;7.15;5.28;;;0.80;99.90;;;;;;5111470;27;20333;-74
2023/11/23 03:05:01;;;;;;;4.60;3.92;;;0.80;99.90;;;;;;5106367;28;20289;-74
2023/11/23 03:07:27;;;;;;;8.02;6.85;;;0.90;99.90;;;;;;5108075;28;20193;-74
2023/11/23 03:09:54;;;;;;;9.82;6.10;;;0.90;99.90;;;;;;5107992;28;20213;-74
2023/11/23 03:12:22;;;;;;;9.00;6.80;;;0.90;99.90;;;;;;5107173;28;20254;-74
2023/11/23 03:14:48;;;;;;;9.18;7.28;;;1.00;99.90;;;;;;5106262;28;20658;-74
2023/11/23 03:17:18;;;;;;;9.93;5.88;;;0.90;99.90;;;;;;5106280;28;20194;-74
2023/11/23 03:19:46;;;;;;;8.93;5.63;;;0.80;99.90;;;;;;5105957;28;20278;-74
2023/11/23 03:22:14;;;;;;;7.75;5.13;;;0.70;99.90;;;;;;5105677;28;20320;-74
2023/11/23 03:24:42;;;;;;;9.32;4.82;;;0.70;99.90;;;;;;5108141;28;20201;-74
2023/11/23 03:27:10;;;;;;;7.50;5.70;;;0.70;99.90;;;;;;5106137;28;20208;-74
2023/11/23 03:29:38;;;;;;;9.88;6.57;;;0.60;99.90;;;;;;5104677;28;20202;-74
2023/11/23 03:32:06;;;;;;;9.75;6.03;;;0.60;99.90;;;;;;5105596;28;20285;-74
2023/11/23 03:34:36;;;;;;;7.53;4.60;;;0.50;99.90;;;;;;5104626;28;20281;-74
2023/11/23 03:37:04;;;;;;;6.07;5.18;;;0.60;99.90;;;;;;5105462;28;20233;-74
2023/11/23 03:39:32;;;;;;;11.32;6.43;;;0.90;99.90;;;;;;5104468;28;20203;-74
2023/11/23 03:42:00;;;;;;;6.18;4.32;;;0.90;99.90;;;;;;5105654;28;20252;-74
2023/11/23 03:44:30;;;;;;;7.97;5.80;;;0.90;99.90;;;;;;5108737;28;20375;-74
2023/11/23 03:46:57;;;;;;;8.88;5.35;;;1.00;99.90;;;;;;5106210;28;20298;-74
2023/11/23 03:49:25;;;;;;;8.02;5.55;;;1.00;99.90;;;;;;5106485;28;20204;-74
2023/11/23 03:51:54;;;;;;;8.10;5.65;;;1.10;99.90;;;;;;5105464;28;20226;-74
2023/11/23 03:54:22;;;;;;;8.57;4.95;;;1.10;99.90;;;;;;5107886;28;20208;-74
2023/11/23 03:56:49;;;;;;;5.40;4.65;;;0.90;99.90;;;;;;5107229;28;20301;-73
2023/11/23 03:59:16;;;;;;;9.07;5.65;;;0.90;99.90;;;;;;5102078;28;20194;-73
2023/11/23 04:01:46;;;;;;;7.35;4.82;;;0.90;99.90;;;;;;5105459;28;20698;-74
2023/11/23 04:04:13;;;;;;;7.78;5.70;;;0.90;99.90;;;;;;5107947;28;20191;-74
2023/11/23 04:06:40;;;;;;;8.98;5.68;;;0.80;99.90;;;;;;5104442;28;20516;-74
2023/11/23 04:09:09;;;;;;;10.63;6.47;;;0.80;99.90;;;;;;5105484;28;20736;-74
2023/11/23 04:11:36;;;;;;;6.05;5.20;;;0.80;99.90;;;;;;5111608;27;20236;-74
2023/11/23 04:14:03;;;;;;;10.63;6.32;;;0.90;99.90;;;;;;5109733;27;20280;-74
2023/11/23 04:16:29;;;;;;;9.45;4.90;;;0.80;99.90;;;;;;5110406;27;20243;-74
2023/11/23 04:18:56;;;;;;;8.20;5.63;;;0.80;99.90;;;;;;5114533;27;20200;-73
2023/11/23 04:21:23;;;;;;;6.88;4.47;;;0.80;99.90;;;;;;5109886;27;20289;-74
2023/11/23 04:23:50;;;;;;;7.68;5.53;;;0.80;99.90;;;;;;5109764;27;20194;-74
2023/11/23 04:26:18;;;;;;;7.13;5.78;;;0.80;99.90;;;;;;5109140;28;20202;-74
2023/11/23 04:28:44;;;;;;;7.93;5.55;;;0.80;99.90;;;;;;5109522;27;20201;-74
2023/11/23 04:31:11;;;;;;;6.00;4.75;;;0.70;99.90;;;;;;5113165;27;20207;-74
2023/11/23 04:33:38;;;;;;;8.57;6.75;;;0.70;99.90;;;;;;5105975;27;20205;-74
2023/11/23 04:36:06;;;;;;;8.85;5.38;;;0.80;99.90;;;;;;5114044;27;20226;-73
2023/11/23 04:38:33;;;;;;;9.80;5.28;;;0.70;99.90;;;;;;5114007;27;20198;-73
2023/11/23 04:41:00;;;;;;;9.00;6.22;;;0.50;99.90;;;;;;5109421;27;20200;-73
2023/11/23 04:43:28;;;;;;;9.75;4.80;;;0.50;99.90;;;;;;5108425;28;20222;-73
2023/11/23 04:45:54;;;;;;;8.15;6.28;;;0.50;99.90;;;;;;5111872;27;20206;-73
2023/11/23 04:48:21;;;;;;;7.15;4.78;;;0.50;99.90;;;;;;5108703;28;20198;-73
2023/11/23 04:50:48;;;;;;;5.63;4.63;;;0.50;99.90;;;;;;5107001;27;20206;-73
2023/11/23 04:53:16;;;;;;;8.02;3.92;;;0.40;99.90;;;;;;5109066;28;20236;-73
2023/11/23 04:55:43;;;;;;;6.10;4.80;;;0.50;99.90;;;;;;5108224;27;20679;-73
2023/11/23 04:58:10;;;;;;;9.15;4.63;;;0.50;99.90;;;;;;5103909;27;20190;-73
2023/11/23 05:00:38;;;;;;;5.85;3.90;;;0.60;99.90;;;;;;5110078;27;20194;-73
2023/11/23 05:03:05;;;;;;;3.63;3.22;;;0.40;99.90;;;;;;5110094;27;20224;-73
2023/11/23 05:05:32;;;;;;;9.05;3.75;;;0.40;99.90;;;;;;5111141;27;20213;-73
2023/11/23 05:07:58;;;;;;;7.25;4.45;;;0.50;99.90;;;;;;5109682;27;20508;-73
2023/11/23 05:10:26;;;;;;;4.40;4.00;;;0.40;99.90;;;;;;5107619;28;20225;-73
2023/11/23 05:12:53;;;;;;;8.60;5.60;;;0.40;99.90;;;;;;5109205;27;20244;-73
2023/11/23 05:15:19;;;;;;;7.88;4.13;;;0.40;99.90;;;;;;5106206;28;20281;-73
2023/11/23 05:17:47;;;;;;;8.32;4.93;;;0.40;99.90;;;;;;5113123;27;20204;-74
2023/11/23 05:20:14;;;;;;;5.95;4.70;;;0.40;99.90;;;;;;5112548;27;20748;-73
2023/11/23 05:22:41;;;;;;;6.57;5.05;;;0.40;99.90;;;;;;5108679;28;20220;-74
2023/11/23 05:25:09;;;;;;;6.03;4.30;;;0.30;99.90;;;;;;5108018;27;20546;-74
2023/11/23 05:27:36;;;;;;;5.78;3.47;;;0.30;99.90;;;;;;5108778;27;20269;-74
2023/11/23 05:30:02;;;;;;;5.72;3.95;;;0.30;99.90;;;;;;5107874;27;20208;-74
2023/11/23 05:32:29;;;;;;;5.50;4.15;;;0.30;99.90;;;;;;5108346;27;20536;-74
2023/11/23 05:34:57;;;;;;;7.25;4.63;;;0.30;99.90;;;;;;5109062;27;20202;-74
2023/11/23 05:37:24;;;;;;;4.03;3.47;;;0.30;99.90;;;;;;5107960;27;20204;-73
2023/11/23 05:39:51;;;;;;;4.07;3.28;;;0.40;99.90;;;;;;5107606;27;20204;-74
2023/11/23 05:42:18;;;;;;;3.97;3.47;;;0.50;99.90;;;;;;5109678;27;20253;-75
2023/11/23 05:44:45;;;;;;;6.50;4.57;;;0.50;99.90;;;;;;5108041;28;20930;-77
2023/11/23 05:47:12;;;;;;;6.90;4.65;;;0.50;99.90;;;;;;5112919;27;20202;-77
2023/11/23 05:49:39;;;;;;;4.65;3.50;;;0.50;99.90;;;;;;5106842;27;20202;-77
2023/11/23 05:52:08;;;;;;;4.75;3.40;;;0.40;99.90;;;;;;5107581;27;20293;-74
2023/11/23 05:54:34;;;;;;;8.43;4.97;;;0.50;99.90;;;;;;5108207;27;20229;-74
2023/11/23 05:57:01;;;;;;;7.82;4.38;;;0.50;99.90;;;;;;5107833;28;20204;-74
2023/11/23 05:59:28;;;;;;;5.57;3.60;;;0.50;99.90;;;;;;5107973;27;20198;-74
2023/11/23 06:01:55;;;;;;;5.13;3.05;;;0.40;99.90;;;;;;5109409;27;20206;-74
2023/11/23 06:04:22;;;;;;;7.22;3.70;;;0.40;99.90;;;;;;5111374;27;20204;-74
2023/11/23 06:06:49;;;;;;;6.53;4.30;;;0.50;99.90;;;;;;5108236;27;20189;-73
2023/11/23 06:09:17;;;;;;;6.85;4.00;;;0.50;99.90;;;;;;5104146;28;20197;-73
2023/11/23 06:11:44;;;;;;;4.60;3.63;;;0.50;99.90;;;;;;5107378;28;20202;-74
2023/11/23 06:14:11;;;;;;;5.03;4.13;;;0.50;99.90;;;;;;5104260;27;20786;-73
2023/11/23 06:16:37;;;;;;;4.85;3.50;;;0.50;99.90;;;;;;5099731;28;20674;-72
2023/11/23 06:19:05;;;;;;;4.20;3.63;;;0.50;99.90;;;;;;5110611;27;20659;-72
2023/11/23 06:21:31;;;;;;;6.50;4.55;;;0.50;99.90;;;;;;5110429;27;20676;-73
2023/11/23 06:23:59;;;;;;;4.32;2.80;;;0.50;99.90;;;;;;5115657;27;20572;-73
2023/11/23 06:26:27;;;;;;;3.90;3.60;;;0.50;99.90;;;;;;5106752;28;20205;-73
2023/11/23 06:28:54;;;;;;;4.68;3.08;;;0.30;99.90;;;;;;5106460;28;20225;-73
2023/11/23 06:31:21;;;;;;;12.20;5.15;;;0.40;99.90;;;;;;5106409;28;20201;-73
2023/11/23 06:33:48;;;;;;;4.55;3.65;;;0.40;99.90;;;;;;5115600;27;20212;-74
2023/11/23 06:36:15;;;;;;;3.95;3.58;;;0.40;99.90;;;;;;5114934;27;20217;-74
2023/11/23 06:38:42;;;;;;;6.03;4.15;;;0.50;99.90;;;;;;5096304;28;20255;-74
2023/11/23 06:41:18;;;;;;;4.65;3.75;;;0.50;99.90;;;;;;5097091;27;20206;-74
2023/11/23 06:43:47;;;;;;;4.35;3.55;;;0.50;99.90;;;;;;5104972;28;20222;-74
2023/11/23 06:46:15;;;;;;;5.30;4.10;;;0.60;99.90;;;;;;5105693;28;20198;-74
2023/11/23 06:48:41;;;;;;;4.78;3.45;;;0.60;99.90;;;;;;5105932;27;20194;-74
2023/11/23 06:51:08;;;;;;;5.30;3.10;;;0.60;99.90;;;;;;5105806;28;20220;-74
2023/11/23 06:53:43;;;;;;;3.72;3.20;;;0.60;99.90;;;;;;5107965;27;20205;-74
2023/11/23 06:56:12;;;;;;;5.90;4.20;;;0.70;99.90;;;;;;5109453;27;20202;-73
2023/11/23 06:58:39;;;;;;;4.38;3.60;;;0.70;99.90;;;;;;5096817;28;20301;-73
2023/11/23 07:01:08;;;;;;;4.85;2.80;;;0.70;99.90;;;;;;5106486;28;21019;-73
2023/11/23 07:03:35;;;;;;;5.43;4.45;;;0.70;99.90;;;;;;5106041;28;20229;-73
2023/11/23 07:06:02;;;;;;;2.30;2.10;;;0.70;99.90;;;;;;5104628;28;20727;-73
2023/11/23 07:08:29;;;;;;;7.95;3.90;;;0.80;99.90;;;;;;5109320;27;20202;-74
2023/11/23 07:10:57;;;;;;;4.32;3.30;;;0.90;99.90;;;;;;5106032;28;20210;-73
2023/11/23 07:13:24;;;;;;;5.50;3.78;;;1.00;99.90;;;;;;5105603;28;20205;-73
2023/11/23 07:15:50;;;;;;;5.60;3.85;;;0.90;99.90;;;;;;5108460;28;20202;-74
2023/11/23 07:18:19;;;;;;;4.90;3.30;;;1.00;99.90;;;;;;5104387;28;20272;-74
2023/11/23 07:20:45;;;;;;;3.15;2.85;;;0.90;99.90;;;;;;5102725;28;20196;-73
2023/11/23 07:23:12;;;;;;;4.57;3.08;;;0.90;99.90;;;;;;5105560;28;20316;-73
2023/11/23 07:25:43;;;;;;;3.83;2.92;;;0.90;99.90;;;;;;5105452;28;20196;-74
2023/11/23 07:28:11;;;;;;;2.78;2.58;;;0.90;99.90;;;;;;5104992;28;20552;-73
2023/11/23 07:30:38;;;;;;;5.55;3.97;;;0.80;99.90;;;;;;5105589;28;20247;-74
2023/11/23 07:33:06;;;;;;;7.38;4.10;;;0.90;99.90;;;;;;5106094;28;20212;-74
2023/11/23 07:35:34;;;;;;;3.42;2.25;;;1.10;99.90;;;;;;5113709;28;20206;-73
2023/11/23 07:38:04;;;;;;;5.05;2.55;;;1.30;99.90;;;;;;5105633;28;20198;-73
2023/11/23 07:40:30;;;;;;;3.08;2.83;;;1.40;99.90;;;;;;5100588;28;20194;-74
2023/11/23 07:42:57;;;;;;;4.50;3.65;;;1.40;99.90;;;;;;5098815;28;20226;-73
2023/11/23 07:45:24;;;;;;;2.88;2.42;;;1.60;99.90;;;;;;5109067;28;20216;-74
2023/11/23 07:47:51;;;;;;;2.78;2.20;;;1.50;99.90;;;;;;5109884;28;20558;-74
2023/11/23 07:50:18;;;;;;;4.60;3.58;;;1.60;99.90;;;;;;5107591;28;20586;-74
2023/11/23 07:52:47;;;;;;;3.92;3.03;;;1.70;99.90;;;;;;5109475;27;20198;-74
2023/11/23 07:55:15;;;;;;;4.53;2.60;;;1.70;99.90;;;;;;5110380;27;20197;-74
2023/11/23 07:57:43;;;;;;;3.13;2.70;;;1.70;99.90;;;;;;5108283;27;20201;-74
2023/11/23 08:00:13;;;;;;;4.20;2.60;;;1.70;99.90;;;;;;5112002;27;20201;-73
2023/11/23 08:02:40;;;;;;;3.90;2.08;;;1.70;99.90;;;;;;5108622;28;20194;-74
2023/11/23 08:05:09;;;;;;;3.08;2.72;;;1.90;99.90;;;;;;5111635;27;20663;-73
2023/11/23 08:07:35;;;;;;;2.15;2.00;;;2.00;99.90;;;;;;5107548;28;20194;-73
2023/11/23 08:10:08;;;;;;;5.32;2.78;;;2.10;99.90;;;;;;5108408;27;20763;-73
2023/11/23 08:12:35;;;;;;;5.22;2.65;;;2.30;99.90;;;;;;5110993;27;20202;-73
2023/11/23 08:15:03;;;;;;;3.33;2.35;;;2.40;99.90;;;;;;5109109;27;20210;-73
2023/11/23 08:17:31;;;;;;;2.65;2.45;;;2.40;99.90;;;;;;5111347;27;20193;-73
2023/11/23 08:19:58;;;;;;;2.75;2.28;;;2.50;99.90;;;;;;5108148;27;20198;-73
2023/11/23 08:22:25;;;;;;;2.90;2.28;;;2.60;99.90;;;;;;5112873;27;20212;-73
2023/11/23 08:24:52;;;;;;;2.50;2.03;;;2.50;99.90;;;;;;5114387;27;20317;-73
2023/11/23 08:27:21;;;;;;;1.95;1.85;;;2.70;99.90;;;;;;5113690;27;20256;-72
2023/11/23 08:29:49;;;;;;;2.40;2.05;;;2.50;99.90;;;;;;5113744;27;20205;-72
2023/11/23 08:32:16;;;;;;;2.20;1.98;;;2.50;99.90;;;;;;5108974;28;20195;-72
2023/11/23 08:34:43;;;;;;;2.70;2.47;;;2.50;99.90;;;;;;5107692;28;20210;-73
2023/11/23 08:37:10;;;;;;;3.67;2.47;;;2.70;99.90;;;;;;5109252;28;20206;-73
2023/11/23 08:39:37;;;;;;;3.33;2.28;;;2.70;99.90;;;;;;5108216;28;20208;-73
2023/11/23 08:42:04;;;;;;;4.38;2.65;;;2.90;99.90;;;;;;5108458;28;20603;-73
2023/11/23 08:44:32;;;;;;;3.28;2.70;;;3.00;99.90;;;;;;5113906;27;20232;-73
2023/11/23 08:47:00;;;;;;;4.22;3.20;;;3.10;99.90;;;;;;5108083;28;20540;-75
2023/11/23 08:49:27;;;;;;;4.15;3.63;;;3.10;99.90;;;;;;5106798;28;20204;-73
2023/11/23 08:51:53;;;;;;;2.83;2.63;;;3.20;99.90;;;;;;5101941;28;20205;-73
2023/11/23 08:54:21;;;;;;;2.17;1.83;;;3.30;99.90;;;;;;5108506;28;20699;-73
2023/11/23 08:56:48;;;;;;;3.00;2.17;;;3.30;99.90;;;;;;5105720;28;20207;-73
2023/11/23 08:59:14;;;;;;;2.97;1.77;;;3.40;99.90;;;;;;5104720;28;20616;-75
2023/11/23 09:01:46;;;;;;;3.47;2.00;;;3.40;99.90;;;;;;5104773;28;20208;-75
2023/11/23 09:04:12;;;;;;;3.00;2.70;;;3.40;99.90;;;;;;5108766;28;20604;-74
2023/11/23 09:06:39;;;;;;;2.58;2.00;;;3.40;99.90;;;;;;5106935;28;20585;-75
2023/11/23 09:09:06;;;;;;;4.72;2.50;;;3.50;99.90;;;;;;5107987;28;20281;-75
2023/11/23 09:11:33;;;;;;;3.15;2.58;;;3.60;99.90;;;;;;5107860;27;20212;-75
2023/11/23 09:14:02;;;;;;;2.15;1.95;;;3.60;99.90;;;;;;5107922;28;20201;-75
2023/11/23 09:16:29;;;;;;;4.90;3.28;;;3.70;99.90;;;;;;5107720;27;20277;-75
2023/11/23 09:18:57;;;;;;;3.03;2.42;;;3.90;99.90;;;;;;5107302;28;20203;-76
2023/11/23 09:21:25;;;;;;;4.38;2.13;;;4.00;99.90;;;;;;5107660;28;20204;-75
2023/11/23 09:23:53;;;;;;;3.20;2.40;;;4.00;99.90;;;;;;5107709;28;20231;-75
2023/11/23 09:26:20;;;;;;;2.25;2.05;;;4.00;99.90;;;;;;5107714;28;20681;-75
2023/11/23 09:28:47;;;;;;;4.35;3.47;;;4.00;99.90;;;;;;5106522;28;20213;-75
2023/11/23 09:31:17;;;;;;;2.33;2.10;;;4.20;99.90;;;;;;5111430;27;20232;-75
2023/11/23 09:33:44;;;;;;;3.33;2.38;;;4.00;99.90;;;;;;5104596;27;20205;-75
2023/11/23 09:36:14;;;;;;;1.60;1.50;;;4.20;99.90;;;;;;5108450;27;20222;-75
2023/11/23 09:38:42;;;;;;;2.45;2.25;;;4.30;99.90;;;;;;5114039;27;20208;-75
2023/11/23 09:41:18;;;;;;;2.13;1.65;;;4.30;99.90;;;;;;5114384;27;20591;-75
2023/11/23 09:43:47;;;;;;;4.15;1.75;;;4.40;99.90;;;;;;5104716;27;20248;-75
2023/11/23 09:46:15;;;;;;;4.80;2.55;;;4.40;99.90;;;;;;5107762;28;20200;-75
2023/11/23 09:48:45;;;;;;;2.83;2.33;;;4.40;99.90;;;;;;5110161;27;20281;-75
2023/11/23 09:51:14;;;;;;;1.50;1.35;;;4.40;99.90;;;;;;5109739;27;20523;-75
2023/11/23 09:53:44;;;;;;;2.88;2.65;;;4.50;99.90;;;;;;5107497;27;20590;-75
2023/11/23 09:56:11;;;;;;;2.05;1.60;;;4.60;99.90;;;;;;5112560;27;20615;-75
2023/11/23 09:58:38;;;;;;;3.00;2.80;;;4.70;99.90;;;;;;5101783;27;20240;-75
2023/11/23 10:01:05;;;;;;;2.45;2.25;;;4.90;99.90;;;;;;5107636;27;20232;-75
2023/11/23 10:03:34;;;;;;;2.85;1.95;;;4.90;99.90;;;;;;5108005;27;20214;-75
2023/11/23 10:06:01;;;;;;;4.47;2.50;;;4.90;99.90;;;;;;5108592;27;20289;-76
2023/11/23 10:08:29;;;;;;;2.47;2.28;;;4.90;99.90;;;;;;5106258;27;20197;-75
2023/11/23 10:10:58;;;;;;;2.42;1.80;;;5.00;99.90;;;;;;5106550;28;20562;-76
2023/11/23 10:13:25;;;;;;;2.25;2.05;;;5.00;99.90;;;;;;5108696;27;20305;-75
2023/11/23 10:15:52;;;;;;;2.15;1.90;;;5.10;99.90;;;;;;5108446;27;20304;-75
2023/11/23 10:18:19;;;;;;;9.40;2.45;;;5.30;99.90;;;;;;5107248;27;20198;-75
2023/11/23 10:20:46;;;;;;;2.53;2.30;;;5.30;99.90;;;;;;5108403;27;20206;-75
2023/11/23 10:23:14;;;;;;;2.38;2.17;;;5.30;99.90;;;;;;5108252;27;20706;-75
2023/11/23 10:25:43;;;;;;;2.15;1.90;;;5.30;99.90;;;;;;5106478;28;20208;-76
2023/11/23 10:28:10;;;;;;;2.33;2.03;;;5.40;99.90;;;;;;5105577;27;20202;-75
2023/11/23 10:30:37;;;;;;;2.38;2.15;;;5.40;99.90;;;;;;5106604;27;20670;-75
2023/11/23 10:33:05;;;;;;;3.05;2.10;;;5.40;99.90;;;;;;5108928;27;20201;-75
2023/11/23 10:35:38;;;;;;;3.25;2.03;;;5.40;99.90;;;;;;5106312;27;20673;-75
2023/11/23 10:38:07;;;;;;;1.95;1.83;;;5.50;99.90;;;;;;5106444;28;20244;-75
2023/11/23 10:40:34;;;;;;;2.97;2.15;;;5.70;99.90;;;;;;5106328;28;20209;-75
2023/11/23 10:43:02;;;;;;;2.40;2.03;;;5.60;99.90;;;;;;5107727;27;20802;-75
2023/11/23 10:45:30;;;;;;;3.22;2.38;;;5.50;99.90;;;;;;5110120;27;20610;-75
2023/11/23 10:47:59;;;;;;;2.15;2.03;;;5.60;99.90;;;;;;5113665;27;20250;-75
2023/11/23 10:50:26;;;;;;;1.80;1.70;;;5.50;99.90;;;;;;5107189;27;20191;-75
2023/11/23 10:52:57;;;;;;;3.05;2.17;;;5.60;99.90;;;;;;5105751;27;20209;-75
2023/11/23 10:55:24;;;;;;;3.53;2.72;;;5.50;99.90;;;;;;5103662;28;20211;-75
2023/11/23 10:57:56;;;;;;;2.75;1.77;;;5.50;99.90;;;;;;5105756;27;20216;-75
2023/11/23 11:00:26;;;;;;;2.40;2.05;;;5.50;99.90;;;;;;5104259;28;20564;-75
2023/11/23 11:02:54;;;;;;;2.38;2.17;;;5.60;99.90;;;;;;5110175;27;20202;-75
2023/11/23 11:05:24;;;;;;;2.45;2.20;;;5.80;99.90;;;;;;5106636;28;20230;-75
2023/11/23 11:07:58;;;;;;;4.07;2.60;;;5.70;99.90;;;;;;5104901;27;20288;-75
2023/11/23 11:10:27;;;;;;;2.80;2.60;;;5.70;99.90;;;;;;5105650;28;20496;-75
2023/11/23 11:13:05;;;;;;;3.10;2.47;;;5.80;99.90;;;;;;5105358;27;20263;-76
2023/11/23 11:15:33;;;;;;;3.33;2.90;;;5.80;99.90;;;;;;5106527;27;20555;-75
2023/11/23 11:18:06;;;;;;;2.47;2.10;;;5.80;99.90;;;;;;5106925;28;20307;-75
2023/11/23 11:20:33;;;;;;;1.70;1.60;;;5.90;99.90;;;;;;5105950;28;20203;-75
2023/11/23 11:23:00;;;;;;;3.20;2.63;;;5.90;99.90;;;;;;5108541;27;20300;-75
2023/11/23 11:25:38;;;;;;;2.55;2.13;;;6.00;99.90;;;;;;5105014;28;20267;-75
2023/11/23 11:28:10;;;;;;;4.50;2.35;;;6.00;99.90;;;;;;5105385;28;20210;-76
2023/11/23 11:30:39;;;;;;;3.92;2.65;;;5.90;99.90;;;;;;5116175;28;20565;-75
2023/11/23 11:33:11;;;;;;;4.32;3.42;;;6.00;99.90;;;;;;5109877;28;20198;-75
2023/11/23 11:35:45;;;;;;;2.47;2.00;;;6.10;99.90;;;;;;5104769;28;20202;-75
2023/11/23 11:38:15;;;;;;;3.38;2.45;;;6.10;99.90;;;;;;5105398;28;20205;-75
2023/11/23 11:40:44;;;;;;;2.50;2.30;;;6.10;99.90;;;;;;5105846;28;20201;-75
2023/11/23 11:43:11;;;;;;;2.40;2.00;;;6.30;99.90;;;;;;5108932;28;20197;-75
2023/11/23 11:45:39;;;;;;;2.30;2.10;;;6.30;99.90;;;;;;5105939;27;20233;-75
2023/11/23 11:48:06;;;;;;;2.70;1.75;;;6.20;99.90;;;;;;5112215;28;20665;-75
2023/11/23 11:50:33;;;;;;;1.45;1.33;;;6.20;99.90;;;;;;5105585;28;20194;-75
2023/11/23 11:53:00;;;;;;;2.65;1.80;;;6.30;99.90;;;;;;5113142;28;20201;-72
2023/11/23 11:55:27;;;;;;;1.90;1.45;;;6.30;99.90;;;;;;5112081;28;20198;-74
2023/11/23 11:57:54;;;;;;;1.55;1.20;;;6.30;99.90;;;;;;5100957;28;20209;-74
2023/11/23 12:00:21;;;;;;;1.95;1.75;;;6.40;99.90;;;;;;5106288;28;20611;-74
2023/11/23 12:02:49;;;;;;;2.30;2.08;;;6.50;99.90;;;;;;5108647;28;20198;-74
2023/11/23 12:05:16;;;;;;;3.13;1.70;;;6.50;99.90;;;;;;5106181;28;20228;-74
2023/11/23 12:07:44;;;;;;;2.10;1.90;;;6.40;99.90;;;;;;5104170;28;20796;-75
2023/11/23 12:10:11;;;;;;;1.90;1.80;;;6.50;99.90;;;;;;5101774;28;20206;-75
2023/11/23 12:12:44;;;;;;;2.65;2.03;;;6.60;99.90;;;;;;5114170;28;20198;-75
2023/11/23 12:15:16;;;;;;;1.70;1.35;;;6.60;99.90;;;;;;5105259;28;20202;-75
2023/11/23 12:17:49;;;;;;;2.80;1.60;;;6.60;99.90;;;;;;5100491;28;20205;-75
2023/11/23 12:20:16;;;;;;;1.97;1.40;;;6.70;99.90;;;;;;5107010;28;20730;-75
2023/11/23 12:22:44;;;;;;;1.17;1.08;;;6.80;99.90;;;;;;5100047;28;20619;-75
2023/11/23 12:25:12;;;;;;;2.28;1.90;;;6.90;99.90;;;;;;5108523;28;20233;-74
2023/11/23 12:27:42;;;;;;;1.40;1.30;;;6.80;99.90;;;;;;5105153;28;20202;-75
2023/11/23 12:30:11;;;;;;;1.75;1.40;;;6.80;99.90;;;;;;5105031;28;20201;-75
2023/11/23 12:32:38;;;;;;;2.60;1.10;;;6.70;99.90;;;;;;5111028;27;20284;-75
2023/11/23 12:35:08;;;;;;;1.37;1.27;;;6.70;99.90;;;;;;5113279;27;20652;-76
2023/11/23 12:37:36;;;;;;;2.00;1.70;;;6.70;99.90;;;;;;5109053;27;20627;-75
2023/11/23 12:40:09;;;;;;;1.40;1.30;;;6.80;99.90;;;;;;5108077;28;20202;-75
2023/11/23 12:42:36;;;;;;;2.30;1.20;;;6.80;99.90;;;;;;5108956;28;20245;-75
2023/11/23 12:45:05;;;;;;;1.80;1.53;;;6.80;99.90;;;;;;5108856;27;20731;-75
2023/11/23 12:47:32;;;;;;;1.40;1.30;;;6.80;99.90;;;;;;5108343;28;20663;-75
2023/11/23 12:49:59;;;;;;;2.80;1.55;;;6.90;99.90;;;;;;5107381;28;20198;-75
2023/11/23 12:52:28;;;;;;;1.03;0.90;;;6.90;99.90;;;;;;5109010;27;20208;-75
2023/11/23 12:54:54;;;;;;;2.70;1.47;;;6.90;99.90;;;;;;5101018;28;20623;-75
2023/11/23 12:57:21;;;;;;;1.43;1.33;;;6.90;99.90;;;;;;5108257;28;21160;-75